Time;durP1;ratioP1;P1;durP2;ratioP2;P2;SDS_P1;SDS_P2;PMS_P1;PMS_P2;Temp;Humidity;BMP_temperature;BMP_pressure;BME280_temperature;BME280_humidity;BME280_pressure;Samples;Min_cycle;Max_cycle;Signal;HPM_P1;HPM_P2
2022/06/04 00:01:27;;;;;;;8.80;4.40;;;10.40;99.90;10.20;99115.00;;;;5022229;28;87468;-61
2022/06/04 00:03:54;;;;;;;8.88;4.10;;;10.40;99.90;10.10;99116.00;;;;5029721;28;87067;-61
2022/06/04 00:06:20;;;;;;;10.55;4.03;;;10.40;99.90;10.10;99122.00;;;;5027309;28;87503;-61
2022/06/04 00:08:46;;;;;;;9.20;4.07;;;10.40;99.90;10.10;99122.00;;;;5028292;28;87008;-61
2022/06/04 00:16:44;;;;;;;8.73;3.72;;;10.30;99.90;10.20;99115.00;;;;5036910;28;86998;-60
2022/06/04 00:19:11;;;;;;;9.65;4.50;;;10.40;99.90;10.20;99113.00;;;;5026892;28;87000;-61
2022/06/04 00:21:38;;;;;;;9.70;4.15;;;10.40;99.90;10.20;99114.00;;;;5030796;28;87653;-61
2022/06/04 00:24:06;;;;;;;10.90;4.00;;;10.40;99.90;10.20;99117.00;;;;5017623;28;87324;-61
2022/06/04 00:26:32;;;;;;;8.90;3.35;;;10.40;99.90;10.20;99112.00;;;;5034514;28;87061;-62
2022/06/04 00:28:58;;;;;;;8.75;3.47;;;10.50;99.90;10.20;99113.00;;;;5019007;28;86303;-61
2022/06/04 00:31:24;;;;;;;9.98;3.63;;;10.50;99.90;10.20;99118.00;;;;5036323;28;88678;-61
2022/06/04 00:33:51;;;;;;;9.18;3.78;;;10.50;99.90;10.30;99121.00;;;;5032991;28;88668;-60
2022/06/04 00:36:17;;;;;;;8.73;3.60;;;10.50;99.90;10.30;99106.00;;;;5034014;28;87926;-60
2022/06/04 00:38:45;;;;;;;6.53;4.20;;;10.50;99.90;10.30;99102.00;;;;5041083;28;86974;-60
2022/06/04 00:41:30;;;;;;;8.68;3.70;;;10.50;99.90;10.30;99105.00;;;;5024968;28;87687;-61
2022/06/04 00:44:15;;;;;;;6.00;3.40;;;10.50;99.90;10.20;99121.00;;;;5017132;28;86961;-61
2022/06/04 00:46:41;;;;;;;8.57;3.70;;;10.40;99.90;10.10;99108.00;;;;5036800;28;86993;-61
2022/06/04 00:49:12;;;;;;;7.80;4.07;;;10.40;99.90;10.10;99112.00;;;;5029784;28;88078;-60
2022/06/04 00:51:40;;;;;;;11.23;4.63;;;10.40;99.90;10.00;99109.00;;;;5042349;28;87460;-61
2022/06/04 00:54:08;;;;;;;9.63;4.25;;;10.30;99.90;10.00;99116.00;;;;5036588;28;87416;-60
2022/06/04 00:57:04;;;;;;;10.70;4.35;;;10.20;99.90;9.90;99119.00;;;;5014689;28;87035;-61
2022/06/04 01:00:09;;;;;;;12.75;5.05;;;10.10;99.90;9.80;99117.00;;;;5032725;28;86895;-60
2022/06/04 01:03:06;;;;;;;10.75;4.85;;;10.00;99.90;9.70;99113.00;;;;5025630;28;89787;-60
2022/06/04 01:06:13;;;;;;;13.85;5.95;;;9.90;99.90;9.60;99108.00;;;;5013133;28;88354;-60
2022/06/04 01:09:20;;;;;;;9.43;5.75;;;9.90;99.90;9.70;99115.00;;;;5024336;28;87029;-60
2022/06/04 01:12:20;;;;;;;13.70;4.70;;;9.90;99.90;9.90;99117.00;;;;5022947;28;86973;-59
2022/06/04 01:15:10;;;;;;;10.60;4.72;;;10.10;99.90;9.90;99120.00;;;;5041388;28;87670;-60
2022/06/04 01:18:33;;;;;;;9.25;4.35;;;10.10;99.90;9.80;99118.00;;;;5033120;28;87623;-60
2022/06/04 01:21:25;;;;;;;8.88;4.22;;;10.00;99.90;9.80;99122.00;;;;5014074;28;86939;-60
2022/06/04 01:24:27;;;;;;;9.48;4.63;;;10.00;99.90;9.70;99123.00;;;;5034761;28;86386;-60
2022/06/04 01:27:27;;;;;;;10.90;4.30;;;10.00;99.90;9.70;99119.00;;;;5035880;28;87026;-59
2022/06/04 01:30:08;;;;;;;13.55;4.47;;;9.90;99.90;9.60;99132.00;;;;5032642;28;88016;-60
2022/06/04 01:32:46;;;;;;;12.23;4.17;;;9.90;99.90;9.60;99122.00;;;;5026810;28;88196;-61
2022/06/04 01:35:21;;;;;;;7.90;4.13;;;9.90;99.90;9.60;99127.00;;;;5013274;28;87178;-60
2022/06/04 01:38:07;;;;;;;12.95;4.97;;;9.80;99.90;9.50;99128.00;;;;5013506;28;88721;-61
2022/06/04 01:43:41;;;;;;;13.00;4.47;;;9.80;99.90;9.60;99126.00;;;;5023594;28;86932;-61
2022/06/04 01:46:24;;;;;;;8.95;4.88;;;9.80;99.90;9.70;99114.00;;;;5010880;28;86945;-60
2022/06/04 01:48:57;;;;;;;8.55;3.90;;;9.90;99.90;9.80;99121.00;;;;5023369;28;88652;-60
2022/06/04 01:51:27;;;;;;;9.63;4.10;;;10.00;99.90;9.90;99123.00;;;;5025530;28;87440;-60
2022/06/04 01:54:02;;;;;;;11.60;4.60;;;10.10;99.90;10.00;99123.00;;;;5012360;28;87332;-60
2022/06/04 01:56:41;;;;;;;10.05;4.22;;;10.20;99.90;10.30;99125.00;;;;5005636;28;87060;-61
2022/06/04 01:59:39;;;;;;;12.10;3.65;;;10.50;99.90;11.00;99130.00;;;;5008055;28;89539;-60
2022/06/04 02:02:16;;;;;;;10.38;4.40;;;11.00;99.90;11.70;99127.00;;;;5005705;28;88369;-60
2022/06/04 02:04:51;;;;;;;7.97;3.80;;;11.60;99.90;12.20;99137.00;;;;5039790;28;86896;-61
2022/06/04 02:07:30;;;;;;;5.75;3.13;;;12.10;99.90;12.80;99126.00;;;;5023802;28;87656;-59
2022/06/04 02:10:06;;;;;;;6.65;3.20;;;12.60;99.90;13.30;99133.00;;;;5010296;28;88559;-60
2022/06/04 02:12:33;;;;;;;6.15;3.28;;;13.10;99.90;13.60;99122.00;;;;5033957;28;87485;-60
2022/06/04 02:15:05;;;;;;;12.35;3.25;;;13.40;99.90;14.00;99123.00;;;;5041174;28;87370;-60
2022/06/04 02:17:32;;;;;;;7.80;3.30;;;13.70;99.90;14.60;99125.00;;;;5034638;28;86231;-64
2022/06/04 02:19:59;;;;;;;10.63;3.80;;;14.30;99.90;15.10;99121.00;;;;5021183;28;87748;-60
2022/06/04 02:22:25;;;;;;;7.80;3.55;;;14.70;99.90;15.40;99127.00;;;;5031130;28;88015;-59
2022/06/04 02:24:51;;;;;;;11.10;2.80;;;15.00;99.90;15.60;99121.00;;;;5026687;28;87845;-60
2022/06/04 02:27:17;;;;;;;10.20;3.17;;;15.30;99.90;15.90;99134.00;;;;5034318;28;87033;-60
2022/06/04 02:29:43;;;;;;;9.55;2.80;;;15.50;99.90;15.70;99133.00;;;;5012005;28;87647;-60
2022/06/04 02:32:45;;;;;;;9.63;3.17;;;15.30;99.90;15.60;99130.00;;;;5033476;28;88497;-60
2022/06/04 02:35:28;;;;;;;14.80;3.38;;;15.30;99.90;15.70;99135.00;;;;5028198;28;86861;-60
2022/06/04 02:38:58;;;;;;;7.32;2.70;;;15.30;99.90;16.30;99136.00;;;;5018154;28;87213;-59
2022/06/04 02:42:08;;;;;;;6.97;3.13;;;15.80;99.90;16.40;99131.00;;;;4980336;28;88608;-59
2022/06/04 02:44:46;;;;;;;9.38;3.03;;;15.90;99.90;16.70;99129.00;;;;5018228;28;87544;-60
2022/06/04 02:47:49;;;;;;;9.57;3.53;;;16.20;99.90;17.60;99124.00;;;;5031626;28;86912;-59
2022/06/04 02:50:56;;;;;;;8.10;2.97;;;16.90;99.90;17.30;99133.00;;;;5008575;28;87059;-60
2022/06/04 02:53:25;;;;;;;6.60;2.90;;;16.80;99.90;17.60;99124.00;;;;5019926;28;89132;-60
2022/06/04 02:56:01;;;;;;;7.80;2.90;;;17.10;99.90;17.80;99131.00;;;;5013008;28;88232;-60
2022/06/04 02:58:29;;;;;;;10.15;2.78;;;17.30;99.90;17.70;99135.00;;;;5007573;28;87155;-60
2022/06/04 03:00:58;;;;;;;5.35;2.70;;;17.20;99.90;17.90;99140.00;;;;5019205;28;87706;-60
2022/06/04 03:03:25;;;;;;;13.77;2.90;;;17.30;99.90;17.60;99133.00;;;;5016157;28;87023;-60
2022/06/04 03:06:02;;;;;;;9.70;3.10;;;17.10;99.90;17.50;99142.00;;;;5029430;28;88476;-60
2022/06/04 03:08:32;;;;;;;5.82;2.95;;;17.10;99.90;18.10;99144.00;;;;5024584;28;87098;-60
2022/06/04 03:10:59;;;;;;;5.55;2.75;;;17.50;99.90;17.90;99134.00;;;;5036748;28;86416;-60
2022/06/04 03:13:25;;;;;;;5.90;2.53;;;17.30;99.90;18.00;99140.00;;;;5030946;28;88686;-60
2022/06/04 03:15:53;;;;;;;4.97;2.67;;;17.50;99.90;18.10;99156.00;;;;5037466;28;87308;-60
2022/06/04 03:18:19;;;;;;;5.88;2.10;;;17.50;99.90;17.90;99147.00;;;;5035624;28;87893;-60
2022/06/04 03:20:45;;;;;;;8.13;2.50;;;17.50;99.90;17.90;99145.00;;;;5031755;28;87072;-60
2022/06/04 03:23:12;;;;;;;8.73;2.70;;;17.40;99.90;18.20;99155.00;;;;5032895;28;87846;-59
2022/06/04 03:25:39;;;;;;;7.55;2.58;;;17.70;99.90;18.20;99148.00;;;;5032107;28;87356;-60
2022/06/04 03:28:07;;;;;;;6.40;2.53;;;17.70;99.90;18.20;99152.00;;;;5031371;28;86978;-59
2022/06/04 03:30:35;;;;;;;6.32;2.22;;;17.80;99.90;18.30;99147.00;;;;5033533;28;87982;-60
2022/06/04 03:33:02;;;;;;;6.00;2.80;;;17.80;99.90;17.90;99152.00;;;;5011589;28;88544;-59
2022/06/04 03:35:29;;;;;;;8.27;3.13;;;17.50;99.90;17.90;99153.00;;;;5028284;28;87277;-60
2022/06/04 03:37:55;;;;;;;6.22;2.60;;;17.50;99.90;18.10;99163.00;;;;5034143;28;87282;-60
2022/06/04 03:40:21;;;;;;;4.75;2.83;;;17.60;99.90;18.00;99160.00;;;;5029422;28;87974;-60
2022/06/04 03:42:47;;;;;;;7.40;2.95;;;17.60;99.90;18.00;99163.00;;;;5032188;28;89132;-59
2022/06/04 03:45:15;;;;;;;9.80;2.92;;;17.60;99.90;17.90;99170.00;;;;5035707;28;88823;-59
2022/06/04 03:47:41;;;;;;;6.82;2.55;;;17.50;99.90;18.30;99164.00;;;;5032831;28;87045;-61
2022/06/04 03:50:16;;;;;;;6.30;3.08;;;17.90;99.90;18.60;99169.00;;;;5027381;28;87478;-62
2022/06/04 03:52:43;;;;;;;8.13;2.50;;;18.00;99.90;18.80;99157.00;;;;5025812;28;88585;-61
2022/06/04 03:55:11;;;;;;;5.65;2.45;;;18.30;99.90;18.90;99171.00;;;;5034912;28;88122;-61
2022/06/04 03:57:41;;;;;;;4.20;2.30;;;18.30;99.90;18.40;99172.00;;;;5017532;28;88913;-61
2022/06/04 04:00:37;;;;;;;5.78;2.35;;;17.90;99.90;18.30;99164.00;;;;5034548;28;86263;-61
2022/06/04 04:03:14;;;;;;;10.70;2.50;;;17.90;99.90;18.20;99162.00;;;;5015073;28;88776;-61
2022/06/04 04:05:48;;;;;;;6.57;2.53;;;17.80;99.90;17.80;99159.00;;;;5032908;28;88622;-61
2022/06/04 04:08:15;;;;;;;4.53;2.30;;;17.60;99.90;17.90;99161.00;;;;5034111;28;87786;-61
2022/06/04 04:10:43;;;;;;;6.38;2.88;;;17.50;99.90;18.10;99162.00;;;;5028786;28;86989;-61
2022/06/04 04:13:11;;;;;;;8.38;3.22;;;17.80;99.90;18.20;99168.00;;;;5030596;28;87650;-61
2022/06/04 04:15:38;;;;;;;7.72;2.75;;;17.80;99.90;18.00;99173.00;;;;5034649;28;87171;-62
2022/06/04 04:18:06;;;;;;;4.72;2.22;;;17.70;99.90;18.30;99169.00;;;;5032530;28;86964;-60
2022/06/04 04:20:35;;;;;;;10.13;2.60;;;17.90;99.90;17.80;99165.00;;;;5031583;28;87067;-59
2022/06/04 04:23:04;;;;;;;8.40;2.42;;;17.50;99.90;17.80;99166.00;;;;5030053;28;87638;-61
2022/06/04 04:25:31;;;;;;;7.35;2.33;;;17.50;99.90;18.10;99174.00;;;;5016542;28;87339;-61
2022/06/04 04:27:59;;;;;;;4.65;2.42;;;17.80;99.90;18.50;99166.00;;;;5033546;28;86946;-60
2022/06/04 04:30:31;;;;;;;14.02;2.92;;;18.00;99.90;18.70;99168.00;;;;5035413;28;87645;-60
2022/06/04 04:32:58;;;;;;;6.85;2.25;;;18.30;99.90;18.70;99180.00;;;;5032886;28;88622;-61
2022/06/04 04:35:29;;;;;;;9.60;2.10;;;18.10;99.90;19.10;99170.00;;;;5027018;28;89298;-60
2022/06/04 04:37:56;;;;;;;7.03;2.25;;;18.60;99.90;19.10;99167.00;;;;5028306;28;86808;-61
2022/06/04 04:40:25;;;;;;;6.47;2.05;;;18.60;99.90;19.00;99166.00;;;;5023237;28;87470;-60
2022/06/04 04:42:52;;;;;;;4.10;2.45;;;18.50;99.90;19.40;99169.00;;;;5025286;28;87533;-61
2022/06/04 04:45:20;;;;;;;6.68;2.10;;;18.90;99.90;19.50;99170.00;;;;5040742;28;87182;-61
2022/06/04 04:47:48;;;;;;;8.30;2.17;;;18.80;99.90;19.80;99171.00;;;;5036513;28;87099;-61
2022/06/04 04:50:23;;;;;;;5.80;2.17;;;19.20;99.90;20.00;99167.00;;;;5028666;28;86284;-61
2022/06/04 04:52:50;;;;;;;10.27;2.15;;;19.30;99.90;20.30;99177.00;;;;5022873;28;88678;-61
2022/06/04 04:55:17;;;;;;;5.75;2.13;;;19.60;99.90;20.20;99172.00;;;;5023998;28;87733;-61
2022/06/04 04:57:44;;;;;;;7.57;1.80;;;19.60;99.90;20.10;99173.00;;;;5033727;28;88387;-61
2022/06/04 05:00:12;;;;;;;4.43;1.90;;;19.50;99.90;20.40;99175.00;;;;5026043;28;86928;-61
2022/06/04 05:02:38;;;;;;;7.65;1.90;;;19.80;99.90;20.60;99173.00;;;;5011114;28;87665;-60
2022/06/04 05:05:06;;;;;;;6.43;2.20;;;19.90;99.90;20.60;99170.00;;;;5026893;28;88455;-60
2022/06/04 05:07:33;;;;;;;7.90;2.33;;;19.90;99.90;20.30;99182.00;;;;5028919;27;87850;-60
2022/06/04 05:09:59;;;;;;;10.77;2.22;;;19.70;99.90;20.40;99175.00;;;;5034250;28;87473;-60
2022/06/04 05:12:26;;;;;;;6.65;2.22;;;19.80;99.90;20.40;99181.00;;;;5034660;28;87623;-60
2022/06/04 05:14:52;;;;;;;4.03;2.13;;;19.80;99.90;20.40;99180.00;;;;5031290;28;87250;-60
2022/06/04 05:17:19;;;;;;;4.93;2.20;;;19.70;99.90;20.30;99192.00;;;;5031225;28;87016;-60
2022/06/04 05:19:45;;;;;;;5.05;1.92;;;19.80;99.90;20.50;99181.00;;;;5032405;28;87437;-60
2022/06/04 05:22:11;;;;;;;4.60;2.00;;;19.90;99.90;20.90;99183.00;;;;5036203;28;88373;-61
2022/06/04 05:24:38;;;;;;;8.13;2.10;;;20.30;99.90;20.60;99180.00;;;;5032163;28;88471;-60
2022/06/04 05:27:06;;;;;;;4.35;1.83;;;20.00;99.90;20.80;99186.00;;;;5014868;28;87836;-60
2022/06/04 05:29:34;;;;;;;5.15;1.90;;;20.30;99.90;21.20;99178.00;;;;5032370;28;87355;-59
2022/06/04 05:32:02;;;;;;;7.07;2.28;;;20.60;99.90;20.60;99184.00;;;;5033784;28;88521;-59
2022/06/04 05:34:29;;;;;;;8.40;2.47;;;20.10;99.90;20.30;99187.00;;;;5012046;28;88444;-59
2022/06/04 05:36:56;;;;;;;4.70;1.98;;;19.90;99.90;20.20;99191.00;;;;5032294;28;86899;-61
2022/06/04 05:39:23;;;;;;;6.95;1.90;;;19.80;99.90;19.60;99191.00;;;;5031901;28;86275;-60
2022/06/04 05:41:50;;;;;;;6.68;2.17;;;19.30;99.90;19.70;99195.00;;;;5033062;28;88106;-61
2022/06/04 05:44:16;;;;;;;5.53;2.03;;;19.40;99.90;19.90;99185.00;;;;5030383;28;88577;-61
2022/06/04 05:46:44;;;;;;;7.18;2.05;;;19.40;99.90;20.70;99193.00;;;;5036628;28;87897;-61
2022/06/04 05:49:14;;;;;;;5.13;1.80;;;20.10;99.90;20.80;99185.00;;;;5031034;28;87154;-61
2022/06/04 05:51:43;;;;;;;4.47;2.00;;;20.00;99.90;20.20;99188.00;;;;5036245;28;87558;-61
2022/06/04 05:54:10;;;;;;;6.07;1.80;;;19.80;99.90;20.40;99177.00;;;;5030268;28;87326;-61
2022/06/04 05:56:42;;;;;;;5.30;2.40;;;20.00;99.90;20.60;99178.00;;;;5033725;28;86985;-60
2022/06/04 05:59:13;;;;;;;4.63;2.20;;;20.00;99.90;20.60;99176.00;;;;5031141;28;87376;-61
2022/06/04 06:01:41;;;;;;;6.18;2.42;;;20.10;99.90;20.70;99173.00;;;;5036884;28;89221;-61
2022/06/04 06:04:10;;;;;;;3.45;2.33;;;20.10;99.90;21.20;99172.00;;;;5036293;28;88427;-61
2022/06/04 06:06:41;;;;;;;5.35;2.28;;;20.60;99.90;21.40;99171.00;;;;5016577;28;87269;-61
2022/06/04 06:09:10;;;;;;;3.33;2.08;;;20.90;99.90;21.70;99155.00;;;;5037983;28;87148;-61
2022/06/04 06:11:38;;;;;;;4.43;2.40;;;20.90;99.90;21.90;99164.00;;;;5040160;28;88036;-61
2022/06/04 06:14:07;;;;;;;3.85;2.17;;;21.30;99.90;21.20;99169.00;;;;5037800;28;88340;-61
2022/06/04 06:16:38;;;;;;;4.72;2.38;;;20.60;99.90;21.60;99170.00;;;;5039840;28;86978;-61
2022/06/04 06:19:06;;;;;;;8.32;2.15;;;20.90;99.90;21.40;99163.00;;;;5028298;27;87500;-61
2022/06/04 06:21:35;;;;;;;3.97;2.10;;;20.70;99.90;21.80;99172.00;;;;5032870;28;88075;-61
2022/06/04 06:24:02;;;;;;;6.35;2.05;;;21.00;99.90;21.20;99167.00;;;;5034004;28;87569;-61
2022/06/04 06:26:32;;;;;;;3.83;2.00;;;20.50;99.90;20.60;99171.00;;;;5032898;28;87006;-61
2022/06/04 06:29:04;;;;;;;5.72;3.90;;;20.00;99.90;20.00;99167.00;;;;5030208;28;86725;-61
2022/06/04 06:31:32;;;;;;;6.47;2.20;;;19.60;99.90;19.80;99157.00;;;;5013991;28;88774;-61
2022/06/04 06:33:58;;;;;;;4.47;2.00;;;19.50;99.90;19.70;99155.00;;;;5029574;28;87255;-60
2022/06/04 06:36:25;;;;;;;5.38;2.13;;;19.50;99.90;19.50;99167.00;;;;5034374;28;88938;-61
2022/06/04 06:38:52;;;;;;;5.60;2.10;;;19.40;99.90;19.20;99156.00;;;;5034483;28;86997;-61
2022/06/04 06:41:23;;;;;;;3.67;2.15;;;19.00;99.90;19.00;99152.00;;;;5029613;28;87689;-60
2022/06/04 06:43:50;;;;;;;4.75;2.33;;;18.90;99.90;18.90;99165.00;;;;4997877;28;88368;-60
2022/06/04 06:46:23;;;;;;;6.95;2.00;;;18.80;99.90;18.90;99169.00;;;;5033295;28;87042;-61
2022/06/04 06:48:55;;;;;;;2.95;1.98;;;18.70;99.90;18.80;99157.00;;;;5031898;28;86903;-61
2022/06/04 06:51:36;;;;;;;2.38;1.80;;;18.70;99.90;18.90;99163.00;;;;5029143;28;87386;-61
2022/06/04 06:54:03;;;;;;;5.63;2.38;;;18.80;99.90;19.00;99163.00;;;;5034179;28;88422;-60
2022/06/04 06:56:33;;;;;;;2.70;1.70;;;19.10;99.90;19.00;99160.00;;;;5033080;28;87260;-62
2022/06/04 06:59:02;;;;;;;3.90;1.88;;;18.90;99.90;19.00;99155.00;;;;5027574;28;87040;-60
2022/06/04 07:01:28;;;;;;;4.25;1.90;;;19.00;99.90;19.00;99147.00;;;;5031868;28;87896;-60
2022/06/04 07:03:55;;;;;;;4.65;1.83;;;19.00;99.90;19.30;99152.00;;;;5015758;28;89389;-60
2022/06/04 07:06:33;;;;;;;7.22;2.03;;;19.30;99.90;19.40;99161.00;;;;5029620;28;87318;-61
2022/06/04 07:09:03;;;;;;;2.75;1.83;;;19.40;99.90;19.60;99168.00;;;;5032062;28;87043;-60
2022/06/04 07:11:29;;;;;;;3.03;1.70;;;19.50;99.90;19.40;99164.00;;;;5026757;28;87704;-60
2022/06/04 07:13:55;;;;;;;3.83;1.50;;;19.40;99.90;19.40;99156.00;;;;5028410;28;88745;-60
2022/06/04 07:16:22;;;;;;;2.83;1.95;;;19.40;99.90;20.00;99155.00;;;;5016275;28;87762;-60
2022/06/04 07:18:48;;;;;;;4.43;1.73;;;19.80;99.90;20.30;99152.00;;;;5029681;28;87152;-60
2022/06/04 07:21:15;;;;;;;3.53;1.77;;;20.10;99.90;20.30;99159.00;;;;5032037;28;88371;-60
2022/06/04 07:23:41;;;;;;;5.97;1.67;;;20.00;99.90;19.80;99155.00;;;;5027497;28;87355;-60
2022/06/04 07:26:08;;;;;;;4.85;1.73;;;19.60;99.90;19.30;99154.00;;;;5014257;28;88006;-60
2022/06/04 07:28:37;;;;;;;3.47;1.50;;;19.20;99.90;19.50;99151.00;;;;5030948;28;87096;-61
2022/06/04 07:31:05;;;;;;;2.30;1.58;;;19.30;99.90;19.40;99140.00;;;;5030342;27;87646;-61
2022/06/04 07:33:32;;;;;;;6.25;1.60;;;19.30;99.90;19.50;99153.00;;;;5027478;28;87394;-60
2022/06/04 07:35:59;;;;;;;4.32;1.70;;;19.20;99.90;19.20;99147.00;;;;5029604;28;88022;-60
2022/06/04 07:38:26;;;;;;;9.20;3.80;;;19.10;99.90;19.40;99140.00;;;;5031967;28;87514;-60
2022/06/04 07:40:52;;;;;;;3.75;1.80;;;19.30;99.90;19.40;99147.00;;;;5032042;28;87523;-62
2022/06/04 07:43:18;;;;;;;2.53;1.67;;;19.30;99.90;19.40;99148.00;;;;5032434;28;87625;-61
2022/06/04 07:45:44;;;;;;;4.63;1.48;;;19.30;99.90;19.40;99143.00;;;;5030615;28;86940;-61
2022/06/04 07:48:12;;;;;;;5.28;1.98;;;19.30;99.90;19.50;99147.00;;;;5030134;28;87890;-61
2022/06/04 07:50:39;;;;;;;2.15;1.65;;;19.30;99.90;19.30;99159.00;;;;5030286;28;88460;-61
2022/06/04 07:53:06;;;;;;;2.13;1.52;;;19.10;99.90;19.10;99143.00;;;;5031553;28;89511;-61
2022/06/04 07:55:37;;;;;;;4.60;1.67;;;19.10;99.90;19.10;99138.00;;;;5027073;28;86966;-61
2022/06/04 07:58:03;;;;;;;5.53;1.80;;;19.10;99.90;19.10;99145.00;;;;5030104;28;87110;-61
2022/06/04 08:00:29;;;;;;;2.97;1.70;;;19.00;99.90;19.20;99139.00;;;;5033927;28;87607;-62
2022/06/04 08:02:55;;;;;;;2.33;1.30;;;19.20;99.90;19.30;99139.00;;;;5030847;28;87767;-61
2022/06/04 08:05:21;;;;;;;3.53;1.50;;;19.20;99.90;19.10;99138.00;;;;5024453;28;88097;-61
2022/06/04 08:07:47;;;;;;;4.63;1.65;;;19.10;99.90;19.20;99132.00;;;;5042000;28;86181;-62
2022/06/04 08:10:13;;;;;;;2.63;1.70;;;19.20;99.90;19.20;99132.00;;;;5036796;28;87646;-61
2022/06/04 08:13:22;;;;;;;3.58;1.77;;;19.10;99.90;19.10;99125.00;;;;5033035;28;87227;-61
2022/06/04 08:15:29;;;;;;;3.53;1.50;;;19.00;99.90;19.10;99143.00;;;;5018032;28;87992;-61
2022/06/04 08:17:55;;;;;;;3.53;1.70;;;18.90;99.90;19.20;99131.00;;;;5029782;28;86999;-61
2022/06/04 08:20:21;;;;;;;5.80;1.92;;;19.00;99.90;19.40;99136.00;;;;5027090;28;87480;-60
2022/06/04 08:22:48;;;;;;;4.45;1.70;;;19.30;99.90;19.60;99132.00;;;;5028514;28;88126;-60
2022/06/04 08:25:16;;;;;;;2.05;1.65;;;19.50;99.90;19.80;99133.00;;;;5023708;28;86881;-60
2022/06/04 08:27:44;;;;;;;6.13;1.80;;;19.80;99.90;20.00;99130.00;;;;5031579;28;87262;-60
2022/06/04 08:30:11;;;;;;;3.38;1.90;;;19.90;99.90;20.40;99120.00;;;;5035858;28;88928;-60
2022/06/04 08:32:37;;;;;;;4.28;1.85;;;20.20;99.90;20.30;99126.00;;;;5027444;28;88206;-61
2022/06/04 08:35:04;;;;;;;5.93;1.80;;;20.10;99.90;20.40;99126.00;;;;5023653;28;87407;-60
2022/06/04 08:37:30;;;;;;;5.07;1.58;;;20.20;99.90;20.20;99141.00;;;;5038745;28;87082;-60
2022/06/04 08:39:57;;;;;;;3.67;1.30;;;19.90;99.90;20.30;99143.00;;;;5020565;28;89672;-60
2022/06/04 08:42:46;;;;;;;4.20;1.48;;;20.00;99.90;20.30;99138.00;;;;5029271;28;88259;-61
2022/06/04 08:45:13;;;;;;;3.47;1.73;;;20.00;99.90;20.00;99139.00;;;;5043433;28;86973;-60
2022/06/04 08:47:48;;;;;;;4.07;1.80;;;19.70;99.90;19.80;99140.00;;;;5033121;28;87142;-61
2022/06/04 08:50:23;;;;;;;9.43;2.67;;;19.60;99.90;19.70;99133.00;;;;5017587;28;88740;-61
2022/06/04 08:52:58;;;;;;;3.25;1.75;;;19.50;99.90;19.50;99138.00;;;;5010467;28;87567;-61
2022/06/04 08:58:50;;;;;;;3.95;1.50;;;18.90;99.90;18.90;99128.00;;;;5019909;28;86642;-61
2022/06/04 09:01:53;;;;;;;12.82;2.15;;;18.70;99.90;18.70;99136.00;;;;5032577;28;88774;-61
2022/06/04 09:04:53;;;;;;;3.25;1.85;;;18.50;99.90;18.80;99139.00;;;;5034862;28;87652;-61
2022/06/04 09:07:37;;;;;;;5.22;1.83;;;18.70;99.90;19.10;99121.00;;;;5018770;28;87944;-60
2022/06/04 09:10:34;;;;;;;3.33;1.50;;;18.80;99.90;19.40;99111.00;;;;5021045;28;87027;-60
2022/06/04 09:13:20;;;;;;;3.78;1.67;;;19.20;99.90;19.80;99118.00;;;;5035169;28;87702;-60
2022/06/04 09:15:53;;;;;;;4.90;1.70;;;19.60;99.90;19.80;99109.00;;;;5028924;28;87385;-60
2022/06/04 09:18:30;;;;;;;2.67;1.40;;;19.50;99.90;19.60;99101.00;;;;5016948;28;86967;-60
2022/06/04 09:20:59;;;;;;;3.20;1.83;;;19.40;99.90;19.60;99104.00;;;;5014505;28;86971;-60
2022/06/04 09:23:34;;;;;;;3.88;1.95;;;19.40;99.90;19.50;99095.00;;;;5029893;28;87103;-60
2022/06/04 09:26:15;;;;;;;3.65;2.17;;;19.40;99.90;19.60;99091.00;;;;5027941;28;87327;-61
2022/06/04 09:29:01;;;;;;;2.90;1.67;;;19.50;99.90;19.90;99083.00;;;;5032153;28;87515;-61
2022/06/04 09:31:55;;;;;;;2.22;1.60;;;19.80;99.90;20.20;99085.00;;;;5033059;28;87021;-61
2022/06/04 09:34:27;;;;;;;4.82;1.90;;;20.10;99.90;20.40;99083.00;;;;5012815;28;88336;-61
2022/06/04 09:36:54;;;;;;;6.03;2.13;;;20.30;99.90;20.30;99081.00;;;;5013660;28;88473;-60
2022/06/04 09:39:33;;;;;;;3.28;1.60;;;20.10;99.90;20.30;99086.00;;;;5016293;28;87113;-60
2022/06/04 09:42:22;;;;;;;3.00;1.75;;;20.20;99.90;20.50;99091.00;;;;5027950;28;86945;-62
2022/06/04 09:44:53;;;;;;;4.65;1.55;;;20.30;99.90;20.20;99093.00;;;;5035651;28;88717;-61
2022/06/04 09:47:43;;;;;;;4.53;1.43;;;19.90;99.90;20.10;99079.00;;;;5037668;28;87003;-61
2022/06/04 09:50:35;;;;;;;2.70;1.83;;;19.90;99.90;20.20;99094.00;;;;5031465;28;87413;-61
2022/06/04 09:53:43;;;;;;;4.15;1.70;;;19.90;99.90;20.20;99085.00;;;;5028352;28;86720;-61
2022/06/04 09:56:17;;;;;;;4.38;1.55;;;20.00;99.90;20.50;99088.00;;;;5012164;28;88218;-61
2022/06/04 09:58:47;;;;;;;4.15;1.58;;;20.30;99.90;20.40;99095.00;;;;5017330;28;87407;-61
2022/06/04 10:01:16;;;;;;;5.32;2.13;;;20.10;99.90;20.40;99087.00;;;;5034100;28;88311;-62
2022/06/04 10:03:44;;;;;;;3.78;1.55;;;20.10;99.90;20.30;99084.00;;;;5030850;28;87285;-61
2022/06/04 10:06:14;;;;;;;2.15;1.70;;;20.20;99.90;20.00;99094.00;;;;5036022;28;87268;-61
2022/06/04 10:11:50;;;;;;;3.67;1.80;;;19.80;99.90;19.90;99089.00;;;;5016688;28;86901;-61
2022/06/04 10:14:31;;;;;;;2.55;1.55;;;19.70;99.90;19.90;99089.00;;;;5026153;28;86925;-62
2022/06/04 10:16:58;;;;;;;4.18;1.73;;;19.70;99.90;19.80;99080.00;;;;5029417;28;87674;-61
2022/06/04 10:19:25;;;;;;;4.05;1.80;;;19.50;99.90;20.00;99080.00;;;;5033050;28;87355;-61
2022/06/04 10:22:13;;;;;;;4.90;1.52;;;19.70;99.90;20.10;99069.00;;;;5029186;28;86976;-61
2022/06/04 10:24:59;;;;;;;3.92;1.80;;;19.80;99.90;20.40;99076.00;;;;5027275;28;87890;-61
2022/06/04 10:27:55;;;;;;;4.70;2.38;;;20.20;99.90;20.70;99072.00;;;;5030816;28;88575;-61
2022/06/04 10:30:40;;;;;;;4.13;2.00;;;20.50;99.90;20.70;99074.00;;;;5009183;28;88383;-59
2022/06/04 10:33:31;;;;;;;2.72;1.77;;;20.50;99.90;20.70;99080.00;;;;5020400;28;87087;-61
2022/06/04 10:36:21;;;;;;;3.13;1.40;;;20.40;99.90;20.80;99073.00;;;;5033495;28;87370;-62
2022/06/04 10:39:10;;;;;;;3.60;1.70;;;20.50;99.90;20.80;99073.00;;;;5013225;28;87626;-61
2022/06/04 10:42:05;;;;;;;3.03;1.60;;;20.50;99.90;20.90;99069.00;;;;5010966;28;87602;-61
2022/06/04 10:45:09;;;;;;;4.20;2.08;;;20.60;99.90;21.00;99073.00;;;;5035403;28;87409;-61
2022/06/04 10:47:55;;;;;;;5.20;1.65;;;20.60;99.90;21.20;99079.00;;;;5000100;28;86279;-61
2022/06/04 10:54:15;;;;;;;2.17;1.73;;;20.70;99.90;21.20;99071.00;;;;5019596;28;87961;-60
2022/06/04 10:56:59;;;;;;;4.05;2.00;;;20.90;99.90;21.40;99066.00;;;;5023402;28;87924;-61
2022/06/04 10:59:34;;;;;;;2.92;1.67;;;21.10;99.90;21.40;99077.00;;;;5030977;28;86989;-61
2022/06/04 11:02:15;;;;;;;5.68;1.73;;;21.00;99.90;21.20;99074.00;;;;5014779;28;88055;-61
2022/06/04 11:04:58;;;;;;;3.73;1.87;;;20.90;99.90;21.10;99069.00;;;;5032417;28;87327;-61
2022/06/04 11:08:01;;;;;;;3.88;1.95;;;20.80;99.90;21.10;99072.00;;;;5017749;28;86983;-61
2022/06/04 11:10:39;;;;;;;3.72;2.00;;;20.80;99.90;20.90;99083.00;;;;5034888;28;87266;-60
2022/06/04 11:13:18;;;;;;;2.75;1.50;;;20.60;99.90;20.80;99073.00;;;;5011373;28;88760;-60
2022/06/04 11:16:09;;;;;;;4.63;2.15;;;20.60;99.90;20.60;99082.00;;;;5040452;28;87194;-60
2022/06/04 11:19:06;;;;;;;4.72;1.92;;;20.30;99.90;20.40;99071.00;;;;5030356;28;87291;-61
2022/06/04 11:21:54;;;;;;;3.17;1.75;;;20.20;99.90;20.60;99084.00;;;;5021081;28;87072;-60
2022/06/04 11:24:29;;;;;;;6.45;1.80;;;20.30;99.90;21.00;99065.00;;;;5018191;28;89702;-60
2022/06/04 11:27:18;;;;;;;6.40;2.03;;;20.60;99.90;21.40;99061.00;;;;5001933;28;89342;-61
2022/06/04 11:29:45;;;;;;;4.75;1.90;;;21.00;99.90;21.90;99068.00;;;;5033408;28;87089;-61
2022/06/04 11:32:37;;;;;;;5.63;1.88;;;21.50;99.90;22.20;99062.00;;;;5030816;28;87048;-61
2022/06/04 11:35:15;;;;;;;4.00;2.05;;;21.70;99.90;21.90;99063.00;;;;5007224;28;87911;-61
2022/06/04 11:38:09;;;;;;;4.15;1.63;;;21.40;99.90;21.80;99062.00;;;;5030599;28;87370;-62
2022/06/04 11:41:09;;;;;;;3.65;1.92;;;21.40;99.90;21.50;99069.00;;;;5035815;28;86833;-60
2022/06/04 11:43:57;;;;;;;3.15;2.08;;;21.10;99.90;21.40;99073.00;;;;5026230;28;86367;-60
2022/06/04 11:46:35;;;;;;;5.88;2.17;;;21.00;99.90;21.10;99069.00;;;;5029990;28;86887;-61